Humber, United Kingdom
Current Conditions -  °F | °C
As of 3:20 PM on Thursday 18 Dec 2014 (Local Time) from EGNJ Reporting Station
Broken Clouds Broken Clouds  
Wind Chill: 57°   Ceiling: 2100
Heat Index: 57°   Visibility: 6mi
Dew Point: 52°   Wind: 25mph
Humidity: 82%   Direction: 230°SW
Pressure: 29.56"   Gusts: NA
Location:  53.68°N, 0.2°W
Report Text: EGNJ 181520Z 23022KT 9999 BKN021 14/11 Q1001
Loading
Personal Weather Stations






























Interactive Weather Map New forecast layout! Learn more

10-Day Weather Forecast

Advertisements
Track Severe Weather on mobile